VOE7LJ LEMD-LIMJ
Flight info
| Callsign | VOE7LJ |
|---|---|
| Flight time | 1h 26m |
| Altitude | 36000 |
| Route | PINAR N870 DIBER DCT STP Y15 EGHIN |
| Aircraft | A319/M-SDFGHIJ1RWY/LB1 |
Departure
| Time | 2026-05-06 09:11 |
|---|---|
| Airport | Adolfo Suárez Madrid–Barajas Airport (LEMD) |
Arrival
| Time | 2026-05-06 10:37 |
|---|---|
| Airport | Genoa Cristoforo Colombo Airport (LIMJ) |
| Time | Latitude | Longitude | Altitude | Speed | Heading |
|---|---|---|---|---|---|
| 2026-05-06 09:06 | 40.48855 | -3.57163 | 1982 ft | 28 kts | 88° |
| 2026-05-06 09:06 | 40.48862 | -3.56904 | 1977 ft | 29 kts | 89° |
| 2026-05-06 09:07 | 40.48866 | -3.56651 | 1973 ft | 28 kts | 89° |
| 2026-05-06 09:07 | 40.48863 | -3.56385 | 1966 ft | 30 kts | 91° |
| 2026-05-06 09:07 | 40.48935 | -3.56249 | 1962 ft | 18 kts | 359° |
| 2026-05-06 09:07 | 40.49063 | -3.56248 | 1962 ft | 19 kts | 0° |
| 2026-05-06 09:08 | 40.49193 | -3.56246 | 1965 ft | 19 kts | 0° |
| 2026-05-06 09:08 | 40.49325 | -3.56248 | 1962 ft | 19 kts | 359° |
| 2026-05-06 09:08 | 40.49456 | -3.56250 | 1962 ft | 19 kts | 0° |
| 2026-05-06 09:08 | 40.49589 | -3.56252 | 1961 ft | 19 kts | 358° |
| 2026-05-06 09:09 | 40.49722 | -3.56256 | 1966 ft | 19 kts | 0° |
| 2026-05-06 09:09 | 40.49856 | -3.56252 | 1961 ft | 19 kts | 1° |
| 2026-05-06 09:09 | 40.49990 | -3.56259 | 1961 ft | 19 kts | 356° |
| 2026-05-06 09:09 | 40.50111 | -3.56218 | 1960 ft | 19 kts | 62° |
| 2026-05-06 09:10 | 40.50126 | -3.56037 | 1959 ft | 20 kts | 71° |
| 2026-05-06 09:10 | 40.50238 | -3.55926 | 1961 ft | 25 kts | 10° |
| 2026-05-06 09:10 | 40.50610 | -3.55913 | 1965 ft | 89 kts | 360° |
| 2026-05-06 09:10 | 40.51446 | -3.55932 | 1951 ft | 149 kts | 359° |
| 2026-05-06 09:11 | 40.52579 | -3.55946 | 2261 ft | 168 kts | 0° |
| 2026-05-06 09:11 | 40.53753 | -3.55956 | 2953 ft | 169 kts | 3° |
| 2026-05-06 09:11 | 40.54902 | -3.55637 | 3643 ft | 170 kts | 18° |
| 2026-05-06 09:11 | 40.56093 | -3.55143 | 4097 ft | 190 kts | 17° |
| 2026-05-06 09:12 | 40.57438 | -3.54598 | 4424 ft | 215 kts | 17° |
| 2026-05-06 09:12 | 40.58889 | -3.53997 | 5153 ft | 221 kts | 21° |
| 2026-05-06 09:12 | 40.60230 | -3.52921 | 5790 ft | 237 kts | 39° |
| 2026-05-06 09:12 | 40.61556 | -3.51454 | 6222 ft | 261 kts | 40° |
| 2026-05-06 09:13 | 40.62978 | -3.49854 | 6915 ft | 274 kts | 40° |
| 2026-05-06 09:13 | 40.64438 | -3.48206 | 7778 ft | 279 kts | 40° |
| 2026-05-06 09:13 | 40.65922 | -3.46534 | 8658 ft | 283 kts | 40° |
| 2026-05-06 09:13 | 40.67430 | -3.44838 | 9560 ft | 288 kts | 40° |
| 2026-05-06 09:14 | 40.68969 | -3.43109 | 10332 ft | 296 kts | 39° |
| 2026-05-06 09:14 | 40.70601 | -3.41281 | 10639 ft | 320 kts | 39° |
| 2026-05-06 09:14 | 40.72363 | -3.39310 | 10885 ft | 344 kts | 39° |
| 2026-05-06 09:14 | 40.74236 | -3.37211 | 11310 ft | 359 kts | 39° |
| 2026-05-06 09:15 | 40.76152 | -3.35060 | 12017 ft | 364 kts | 39° |
| 2026-05-06 09:15 | 40.78090 | -3.32879 | 12769 ft | 368 kts | 40° |
| 2026-05-06 09:15 | 40.80046 | -3.30676 | 13533 ft | 371 kts | 40° |
| 2026-05-06 09:15 | 40.82024 | -3.28452 | 14220 ft | 375 kts | 39° |
| 2026-05-06 09:16 | 40.83885 | -3.26076 | 14854 ft | 381 kts | 49° |
| 2026-05-06 09:16 | 40.85367 | -3.23154 | 15487 ft | 387 kts | 62° |
| 2026-05-06 09:16 | 40.86347 | -3.19825 | 16117 ft | 393 kts | 73° |
| 2026-05-06 09:16 | 40.87033 | -3.16319 | 16749 ft | 397 kts | 74° |
| 2026-05-06 09:17 | 40.87730 | -3.12770 | 17373 ft | 401 kts | 74° |
| 2026-05-06 09:17 | 40.88437 | -3.09183 | 18002 ft | 406 kts | 74° |
| 2026-05-06 09:17 | 40.89155 | -3.05553 | 18567 ft | 410 kts | 74° |
| 2026-05-06 09:17 | 40.89882 | -3.01883 | 19073 ft | 416 kts | 74° |
| 2026-05-06 09:18 | 40.90616 | -2.98158 | 19550 ft | 421 kts | 74° |
| 2026-05-06 09:18 | 40.91356 | -2.94387 | 20005 ft | 427 kts | 74° |
| 2026-05-06 09:18 | 40.92104 | -2.90558 | 20462 ft | 432 kts | 74° |
| 2026-05-06 09:18 | 40.92857 | -2.86687 | 20904 ft | 438 kts | 75° |
| 2026-05-06 09:19 | 40.93618 | -2.82766 | 21329 ft | 443 kts | 75° |
| 2026-05-06 09:19 | 40.94391 | -2.78792 | 21757 ft | 448 kts | 75° |
| 2026-05-06 09:19 | 40.95172 | -2.74776 | 22174 ft | 453 kts | 75° |
| 2026-05-06 09:19 | 40.95959 | -2.70716 | 22581 ft | 458 kts | 75° |
| 2026-05-06 09:20 | 40.96753 | -2.66609 | 22986 ft | 463 kts | 75° |
| 2026-05-06 09:20 | 40.97552 | -2.62457 | 23366 ft | 468 kts | 75° |
| 2026-05-06 09:20 | 40.98360 | -2.58254 | 23725 ft | 473 kts | 75° |
| 2026-05-06 09:20 | 40.99172 | -2.54017 | 24070 ft | 477 kts | 75° |
| 2026-05-06 09:21 | 40.99974 | -2.49804 | 24427 ft | 480 kts | 75° |
| 2026-05-06 09:21 | 41.00799 | -2.45447 | 24796 ft | 483 kts | 75° |
| 2026-05-06 09:21 | 41.01606 | -2.41185 | 25150 ft | 486 kts | 75° |
| 2026-05-06 09:21 | 41.02430 | -2.36837 | 25502 ft | 488 kts | 75° |
| 2026-05-06 09:22 | 41.03260 | -2.32456 | 25853 ft | 491 kts | 75° |
| 2026-05-06 09:22 | 41.04095 | -2.28061 | 26196 ft | 494 kts | 76° |
| 2026-05-06 09:22 | 41.04935 | -2.23632 | 26533 ft | 497 kts | 76° |
| 2026-05-06 09:22 | 41.05777 | -2.19184 | 26857 ft | 500 kts | 76° |
| 2026-05-06 09:23 | 41.06619 | -2.14705 | 27171 ft | 502 kts | 76° |
| 2026-05-06 09:23 | 41.07464 | -2.10198 | 27480 ft | 505 kts | 76° |
| 2026-05-06 09:23 | 41.08313 | -2.05665 | 27789 ft | 508 kts | 76° |
| 2026-05-06 09:23 | 41.09163 | -2.01110 | 28089 ft | 510 kts | 76° |
| 2026-05-06 09:24 | 41.10013 | -1.96526 | 28390 ft | 513 kts | 76° |
| 2026-05-06 09:24 | 41.10866 | -1.91923 | 28678 ft | 515 kts | 76° |
| 2026-05-06 09:24 | 41.11723 | -1.87306 | 29058 ft | 516 kts | 76° |
| 2026-05-06 09:24 | 41.12579 | -1.82690 | 29498 ft | 515 kts | 76° |
| 2026-05-06 09:25 | 41.13431 | -1.78081 | 29920 ft | 515 kts | 76° |
| 2026-05-06 09:25 | 41.14278 | -1.73471 | 30299 ft | 515 kts | 76° |
| 2026-05-06 09:25 | 41.15121 | -1.68851 | 30656 ft | 515 kts | 76° |
| 2026-05-06 09:25 | 41.15964 | -1.64240 | 31031 ft | 514 kts | 76° |
| 2026-05-06 09:26 | 41.16807 | -1.59633 | 31392 ft | 514 kts | 76° |
| 2026-05-06 09:26 | 41.17649 | -1.55015 | 31774 ft | 513 kts | 76° |
| 2026-05-06 09:26 | 41.18480 | -1.50418 | 32155 ft | 513 kts | 76° |
| 2026-05-06 09:26 | 41.19309 | -1.45817 | 32535 ft | 512 kts | 76° |
| 2026-05-06 09:27 | 41.20136 | -1.41227 | 32908 ft | 512 kts | 76° |
| 2026-05-06 09:27 | 41.20965 | -1.36633 | 33274 ft | 511 kts | 76° |
| 2026-05-06 09:27 | 41.21793 | -1.32034 | 33651 ft | 511 kts | 76° |
| 2026-05-06 09:27 | 41.22617 | -1.27447 | 34024 ft | 510 kts | 76° |
| 2026-05-06 09:28 | 41.23438 | -1.22867 | 34351 ft | 510 kts | 76° |
| 2026-05-06 09:28 | 41.24255 | -1.18292 | 34683 ft | 509 kts | 76° |
| 2026-05-06 09:28 | 41.25068 | -1.13725 | 34999 ft | 508 kts | 77° |
| 2026-05-06 09:28 | 41.25878 | -1.09171 | 35325 ft | 507 kts | 77° |
| 2026-05-06 09:29 | 41.26685 | -1.04620 | 35638 ft | 506 kts | 77° |
| 2026-05-06 09:29 | 41.27492 | -1.00066 | 35915 ft | 505 kts | 77° |
| 2026-05-06 09:29 | 41.28294 | -0.95519 | 36008 ft | 506 kts | 77° |
| 2026-05-06 09:30 | 41.29894 | -0.86408 | 36010 ft | 505 kts | 77° |
| 2026-05-06 09:30 | 41.31471 | -0.77370 | 36019 ft | 506 kts | 77° |
| 2026-05-06 09:31 | 41.32800 | -0.69735 | 36008 ft | 506 kts | 77° |
| 2026-05-06 09:31 | 41.34636 | -0.59148 | 36017 ft | 506 kts | 77° |
| 2026-05-06 09:32 | 41.35368 | -0.51388 | 36001 ft | 503 kts | 91° |
| 2026-05-06 09:32 | 41.35301 | -0.42082 | 36004 ft | 503 kts | 92° |
| 2026-05-06 09:33 | 41.35239 | -0.32757 | 36001 ft | 504 kts | 92° |
| 2026-05-06 09:33 | 41.35167 | -0.23494 | 36002 ft | 504 kts | 92° |
| 2026-05-06 09:34 | 41.35073 | -0.14169 | 36005 ft | 504 kts | 92° |
| 2026-05-06 09:34 | 41.34973 | -0.04846 | 36000 ft | 504 kts | 92° |
| 2026-05-06 09:35 | 41.34879 | 0.04473 | 36001 ft | 504 kts | 92° |
| 2026-05-06 09:35 | 41.34778 | 0.13796 | 35996 ft | 504 kts | 93° |
| 2026-05-06 09:36 | 41.34657 | 0.23111 | 35995 ft | 504 kts | 93° |
| 2026-05-06 09:36 | 41.34532 | 0.32433 | 35998 ft | 504 kts | 93° |
| 2026-05-06 09:37 | 41.34403 | 0.41743 | 35995 ft | 503 kts | 93° |
| 2026-05-06 09:37 | 41.34262 | 0.51055 | 35995 ft | 503 kts | 94° |
| 2026-05-06 09:38 | 41.34114 | 0.60111 | 35998 ft | 503 kts | 94° |
| 2026-05-06 09:38 | 41.33965 | 0.69421 | 35992 ft | 503 kts | 94° |
| 2026-05-06 09:39 | 41.33806 | 0.78727 | 35989 ft | 503 kts | 94° |
| 2026-05-06 09:39 | 41.33639 | 0.88030 | 35981 ft | 503 kts | 94° |
| 2026-05-06 09:40 | 41.33466 | 0.97342 | 35975 ft | 503 kts | 94° |
| 2026-05-06 09:40 | 41.33185 | 1.11294 | 35969 ft | 503 kts | 94° |
| 2026-05-06 09:41 | 41.32989 | 1.20601 | 35968 ft | 503 kts | 94° |
| 2026-05-06 09:41 | 41.32788 | 1.29906 | 35967 ft | 503 kts | 94° |
| 2026-05-06 09:42 | 41.32583 | 1.39149 | 35969 ft | 504 kts | 95° |
| 2026-05-06 09:42 | 41.32371 | 1.48464 | 35974 ft | 504 kts | 95° |
| 2026-05-06 09:43 | 41.32144 | 1.57769 | 35973 ft | 503 kts | 95° |
| 2026-05-06 09:43 | 41.31904 | 1.67080 | 35977 ft | 503 kts | 95° |
| 2026-05-06 09:44 | 41.31666 | 1.76386 | 35978 ft | 504 kts | 95° |
| 2026-05-06 09:44 | 41.31423 | 1.85696 | 35985 ft | 504 kts | 95° |
| 2026-05-06 09:45 | 41.31174 | 1.95004 | 35986 ft | 504 kts | 95° |
| 2026-05-06 09:45 | 41.30938 | 2.04327 | 35987 ft | 505 kts | 92° |
| 2026-05-06 09:46 | 41.31971 | 2.13589 | 35986 ft | 510 kts | 73° |
| 2026-05-06 09:46 | 41.34729 | 2.22269 | 35988 ft | 510 kts | 65° |
| 2026-05-06 09:47 | 41.37717 | 2.30845 | 35981 ft | 511 kts | 65° |
| 2026-05-06 09:47 | 41.40656 | 2.39390 | 35969 ft | 511 kts | 65° |
| 2026-05-06 09:48 | 41.43615 | 2.47994 | 35971 ft | 511 kts | 65° |
| 2026-05-06 09:48 | 41.46581 | 2.56606 | 35971 ft | 511 kts | 65° |
| 2026-05-06 09:49 | 41.49538 | 2.65224 | 35971 ft | 511 kts | 66° |
| 2026-05-06 09:49 | 41.52486 | 2.73851 | 35966 ft | 511 kts | 66° |
| 2026-05-06 09:50 | 41.55429 | 2.82493 | 35969 ft | 511 kts | 66° |
| 2026-05-06 09:50 | 41.58365 | 2.91141 | 35973 ft | 511 kts | 66° |
| 2026-05-06 09:51 | 41.61298 | 2.99795 | 35972 ft | 511 kts | 66° |
| 2026-05-06 09:51 | 41.64221 | 3.08454 | 35972 ft | 511 kts | 66° |
| 2026-05-06 09:52 | 41.67136 | 3.17134 | 35978 ft | 511 kts | 66° |
| 2026-05-06 09:52 | 41.70045 | 3.25815 | 35978 ft | 511 kts | 66° |
| 2026-05-06 09:53 | 41.72950 | 3.34503 | 35971 ft | 511 kts | 66° |
| 2026-05-06 09:53 | 41.75852 | 3.43188 | 35974 ft | 511 kts | 66° |
| 2026-05-06 09:54 | 41.78749 | 3.51889 | 35976 ft | 511 kts | 67° |
| 2026-05-06 09:54 | 41.81630 | 3.60606 | 35979 ft | 512 kts | 67° |
| 2026-05-06 09:55 | 41.84507 | 3.69332 | 35981 ft | 512 kts | 67° |
| 2026-05-06 09:55 | 41.87381 | 3.78061 | 35982 ft | 511 kts | 67° |
| 2026-05-06 09:56 | 41.90243 | 3.86801 | 35980 ft | 511 kts | 68° |
| 2026-05-06 09:56 | 41.93096 | 3.95543 | 35979 ft | 511 kts | 68° |
| 2026-05-06 09:57 | 41.95957 | 4.04283 | 35975 ft | 511 kts | 68° |
| 2026-05-06 09:57 | 41.98799 | 4.13032 | 35975 ft | 511 kts | 68° |
| 2026-05-06 09:58 | 42.01629 | 4.21783 | 35972 ft | 511 kts | 68° |
| 2026-05-06 09:58 | 42.04459 | 4.30553 | 35973 ft | 511 kts | 68° |
| 2026-05-06 09:59 | 42.07288 | 4.39255 | 35970 ft | 512 kts | 65° |
| 2026-05-06 09:59 | 42.11118 | 4.47332 | 35973 ft | 513 kts | 54° |
| 2026-05-06 10:00 | 42.15321 | 4.55104 | 35967 ft | 513 kts | 54° |
| 2026-05-06 10:00 | 42.19513 | 4.62909 | 35971 ft | 514 kts | 54° |
| 2026-05-06 10:01 | 42.23699 | 4.70725 | 35968 ft | 514 kts | 54° |
| 2026-05-06 10:01 | 42.27887 | 4.78553 | 35962 ft | 515 kts | 54° |
| 2026-05-06 10:02 | 42.32078 | 4.86410 | 35969 ft | 516 kts | 54° |
| 2026-05-06 10:02 | 42.36268 | 4.94286 | 35970 ft | 516 kts | 54° |
| 2026-05-06 10:03 | 42.40451 | 5.02184 | 35971 ft | 516 kts | 54° |
| 2026-05-06 10:03 | 42.44621 | 5.10083 | 35970 ft | 516 kts | 54° |
| 2026-05-06 10:04 | 42.48801 | 5.17994 | 35967 ft | 516 kts | 54° |
| 2026-05-06 10:04 | 42.52974 | 5.25908 | 35961 ft | 516 kts | 55° |
| 2026-05-06 10:05 | 42.57128 | 5.33845 | 35961 ft | 516 kts | 55° |
| 2026-05-06 10:05 | 42.61275 | 5.41788 | 35957 ft | 516 kts | 55° |
| 2026-05-06 10:06 | 42.65431 | 5.49739 | 35955 ft | 516 kts | 55° |
| 2026-05-06 10:06 | 42.69579 | 5.57692 | 35951 ft | 516 kts | 55° |
| 2026-05-06 10:07 | 42.73714 | 5.65667 | 35953 ft | 516 kts | 55° |
| 2026-05-06 10:07 | 42.77843 | 5.73647 | 35947 ft | 516 kts | 55° |
| 2026-05-06 10:08 | 42.81971 | 5.81632 | 35945 ft | 516 kts | 56° |
| 2026-05-06 10:08 | 42.86093 | 5.89631 | 35934 ft | 516 kts | 56° |
| 2026-05-06 10:09 | 42.90209 | 5.97652 | 35927 ft | 516 kts | 56° |
| 2026-05-06 10:09 | 42.94315 | 6.05682 | 35918 ft | 516 kts | 56° |
| 2026-05-06 10:10 | 42.98427 | 6.13706 | 35914 ft | 516 kts | 56° |
| 2026-05-06 10:10 | 43.02536 | 6.21742 | 35910 ft | 516 kts | 56° |
| 2026-05-06 10:11 | 43.06627 | 6.29802 | 35911 ft | 516 kts | 56° |
| 2026-05-06 10:11 | 43.10706 | 6.37877 | 35908 ft | 516 kts | 56° |
| 2026-05-06 10:12 | 43.14785 | 6.45954 | 35912 ft | 516 kts | 56° |
| 2026-05-06 10:12 | 43.18870 | 6.54044 | 35910 ft | 516 kts | 56° |
| 2026-05-06 10:13 | 43.22942 | 6.62138 | 35910 ft | 516 kts | 56° |
| 2026-05-06 10:13 | 43.27126 | 6.70135 | 35901 ft | 516 kts | 54° |
| 2026-05-06 10:14 | 43.31387 | 6.78066 | 35890 ft | 516 kts | 54° |
| 2026-05-06 10:14 | 43.35624 | 6.86023 | 35886 ft | 516 kts | 55° |
| 2026-05-06 10:15 | 43.39680 | 6.93759 | 35891 ft | 516 kts | 55° |
| 2026-05-06 10:15 | 43.43892 | 7.01830 | 35891 ft | 515 kts | 55° |
| 2026-05-06 10:16 | 43.48035 | 7.09803 | 35894 ft | 515 kts | 55° |
| 2026-05-06 10:16 | 43.52213 | 7.17820 | 35888 ft | 515 kts | 55° |
| 2026-05-06 10:17 | 43.54305 | 7.21828 | 35753 ft | 514 kts | 55° |
| 2026-05-06 10:17 | 43.56381 | 7.25808 | 35367 ft | 509 kts | 55° |
| 2026-05-06 10:17 | 43.58437 | 7.29764 | 34998 ft | 506 kts | 56° |
| 2026-05-06 10:17 | 43.60484 | 7.33718 | 34631 ft | 507 kts | 56° |
| 2026-05-06 10:18 | 43.62379 | 7.37805 | 34217 ft | 505 kts | 64° |
| 2026-05-06 10:18 | 43.63895 | 7.42167 | 33785 ft | 505 kts | 69° |
| 2026-05-06 10:18 | 43.65339 | 7.46604 | 33293 ft | 506 kts | 69° |
| 2026-05-06 10:18 | 43.66784 | 7.51036 | 32807 ft | 508 kts | 69° |
| 2026-05-06 10:19 | 43.68241 | 7.55494 | 32223 ft | 509 kts | 69° |
| 2026-05-06 10:19 | 43.69208 | 7.58447 | 31792 ft | 510 kts | 69° |
| 2026-05-06 10:19 | 43.70668 | 7.62911 | 31157 ft | 511 kts | 69° |
| 2026-05-06 10:19 | 43.72145 | 7.67389 | 30529 ft | 513 kts | 67° |
| 2026-05-06 10:20 | 43.73930 | 7.71679 | 29901 ft | 517 kts | 58° |
| 2026-05-06 10:20 | 43.76139 | 7.75620 | 29203 ft | 519 kts | 49° |
| 2026-05-06 10:20 | 43.78545 | 7.79350 | 28505 ft | 520 kts | 49° |
| 2026-05-06 10:20 | 43.80940 | 7.83087 | 27827 ft | 516 kts | 49° |
| 2026-05-06 10:21 | 43.83299 | 7.86794 | 27159 ft | 511 kts | 49° |
| 2026-05-06 10:21 | 43.85636 | 7.90481 | 26513 ft | 506 kts | 49° |
| 2026-05-06 10:21 | 43.87938 | 7.94123 | 25890 ft | 500 kts | 49° |
| 2026-05-06 10:21 | 43.90222 | 7.97732 | 25262 ft | 494 kts | 49° |
| 2026-05-06 10:22 | 43.92479 | 8.01297 | 24656 ft | 489 kts | 49° |
| 2026-05-06 10:22 | 43.94712 | 8.04828 | 24065 ft | 484 kts | 49° |
| 2026-05-06 10:22 | 43.96921 | 8.08328 | 23280 ft | 483 kts | 49° |
| 2026-05-06 10:22 | 43.99132 | 8.11830 | 22575 ft | 479 kts | 49° |
| 2026-05-06 10:23 | 44.01313 | 8.15287 | 21982 ft | 473 kts | 49° |
| 2026-05-06 10:23 | 44.03426 | 8.18752 | 21396 ft | 467 kts | 53° |
| 2026-05-06 10:23 | 44.05154 | 8.22528 | 20836 ft | 460 kts | 64° |
| 2026-05-06 10:23 | 44.06403 | 8.26576 | 20285 ft | 453 kts | 74° |
| 2026-05-06 10:24 | 44.07231 | 8.30771 | 19724 ft | 448 kts | 78° |
| 2026-05-06 10:24 | 44.07999 | 8.34955 | 19179 ft | 445 kts | 78° |
| 2026-05-06 10:24 | 44.08768 | 8.39114 | 18631 ft | 443 kts | 78° |
| 2026-05-06 10:24 | 44.09536 | 8.43247 | 18082 ft | 441 kts | 78° |
| 2026-05-06 10:25 | 44.10301 | 8.47365 | 17517 ft | 438 kts | 78° |
| 2026-05-06 10:25 | 44.11060 | 8.51455 | 16976 ft | 434 kts | 78° |
| 2026-05-06 10:25 | 44.11809 | 8.55505 | 16207 ft | 435 kts | 78° |
| 2026-05-06 10:25 | 44.12562 | 8.59594 | 15628 ft | 432 kts | 78° |
| 2026-05-06 10:26 | 44.13299 | 8.63602 | 14962 ft | 423 kts | 78° |
| 2026-05-06 10:26 | 44.14020 | 8.67540 | 14098 ft | 416 kts | 78° |
| 2026-05-06 10:26 | 44.14728 | 8.71404 | 13198 ft | 408 kts | 77° |
| 2026-05-06 10:26 | 44.15423 | 8.75203 | 12207 ft | 401 kts | 77° |
| 2026-05-06 10:27 | 44.16105 | 8.78941 | 11237 ft | 395 kts | 77° |
| 2026-05-06 10:27 | 44.16769 | 8.82596 | 10501 ft | 383 kts | 77° |
| 2026-05-06 10:27 | 44.17393 | 8.86025 | 10327 ft | 356 kts | 78° |
| 2026-05-06 10:27 | 44.17980 | 8.89252 | 10210 ft | 332 kts | 78° |
| 2026-05-06 10:28 | 44.18531 | 8.92291 | 9934 ft | 317 kts | 78° |
| 2026-05-06 10:28 | 44.19060 | 8.95234 | 9818 ft | 312 kts | 78° |
| 2026-05-06 10:28 | 44.19583 | 8.98160 | 9690 ft | 310 kts | 78° |
| 2026-05-06 10:28 | 44.20101 | 9.01063 | 9544 ft | 309 kts | 78° |
| 2026-05-06 10:29 | 44.20628 | 9.04016 | 8821 ft | 318 kts | 78° |
| 2026-05-06 10:29 | 44.21165 | 9.07035 | 8316 ft | 319 kts | 78° |
| 2026-05-06 10:29 | 44.21691 | 9.09981 | 8162 ft | 307 kts | 78° |
| 2026-05-06 10:29 | 44.22266 | 9.12758 | 8025 ft | 292 kts | 69° |
| 2026-05-06 10:30 | 44.23249 | 9.15168 | 7754 ft | 284 kts | 53° |
| 2026-05-06 10:30 | 44.24443 | 9.17317 | 7407 ft | 278 kts | 53° |
| 2026-05-06 10:30 | 44.25617 | 9.19446 | 7016 ft | 276 kts | 53° |
| 2026-05-06 10:30 | 44.26818 | 9.21509 | 6613 ft | 274 kts | 44° |
| 2026-05-06 10:31 | 44.28472 | 9.22689 | 6189 ft | 267 kts | 6° |
| 2026-05-06 10:31 | 44.30251 | 9.22379 | 5730 ft | 256 kts | 331° |
| 2026-05-06 10:31 | 44.31676 | 9.20970 | 5250 ft | 250 kts | 316° |
| 2026-05-06 10:31 | 44.32985 | 9.19468 | 5012 ft | 232 kts | 310° |
| 2026-05-06 10:32 | 44.33878 | 9.17753 | 4996 ft | 209 kts | 292° |
| 2026-05-06 10:32 | 44.34378 | 9.15878 | 4672 ft | 205 kts | 283° |
| 2026-05-06 10:32 | 44.34801 | 9.14001 | 4341 ft | 200 kts | 282° |
| 2026-05-06 10:32 | 44.35208 | 9.12150 | 4045 ft | 199 kts | 282° |
| 2026-05-06 10:33 | 44.35609 | 9.10311 | 3763 ft | 197 kts | 283° |
| 2026-05-06 10:33 | 44.36002 | 9.08501 | 3488 ft | 193 kts | 282° |
| 2026-05-06 10:33 | 44.36390 | 9.06718 | 3212 ft | 190 kts | 283° |
| 2026-05-06 10:33 | 44.36771 | 9.04958 | 2950 ft | 189 kts | 283° |
| 2026-05-06 10:34 | 44.37151 | 9.03204 | 2690 ft | 188 kts | 283° |
| 2026-05-06 10:34 | 44.37529 | 9.01457 | 2419 ft | 188 kts | 283° |
| 2026-05-06 10:34 | 44.37908 | 8.99708 | 2153 ft | 188 kts | 282° |
| 2026-05-06 10:34 | 44.38281 | 8.97984 | 1885 ft | 181 kts | 283° |
| 2026-05-06 10:35 | 44.38642 | 8.96315 | 1652 ft | 177 kts | 284° |
| 2026-05-06 10:35 | 44.38997 | 8.94665 | 1414 ft | 177 kts | 285° |
| 2026-05-06 10:35 | 44.39350 | 8.93029 | 1173 ft | 172 kts | 285° |
| 2026-05-06 10:35 | 44.39682 | 8.91491 | 950 ft | 161 kts | 285° |
| 2026-05-06 10:36 | 44.40001 | 8.90008 | 722 ft | 158 kts | 285° |
| 2026-05-06 10:36 | 44.40316 | 8.88543 | 489 ft | 157 kts | 284° |
| 2026-05-06 10:36 | 44.40621 | 8.87097 | 254 ft | 154 kts | 285° |
| 2026-05-06 10:36 | 44.40914 | 8.85678 | 89 ft | 145 kts | 282° |
| 2026-05-06 10:37 | 44.41162 | 8.84425 | 24 ft | 120 kts | 285° |
| 2026-05-06 10:37 | 44.41321 | 8.83482 | 21 ft | 75 kts | 283° |
| 2026-05-06 10:37 | 44.41443 | 8.83125 | 21 ft | 20 kts | 314° |
| 2026-05-06 10:37 | 44.41504 | 8.83088 | 21 ft | 2 kts | 1° |
| 2026-05-06 10:38 | 44.41520 | 8.83095 | 23 ft | 3 kts | 22° |
| 2026-05-06 10:38 | 44.41543 | 8.83127 | 20 ft | 6 kts | 59° |
| 2026-05-06 10:38 | 44.41545 | 8.83192 | 20 ft | 8 kts | 101° |
| 2026-05-06 10:38 | 44.41527 | 8.83276 | 21 ft | 10 kts | 107° |
| 2026-05-06 10:39 | 44.41504 | 8.83382 | 20 ft | 13 kts | 106° |
| 2026-05-06 10:39 | 44.41478 | 8.83510 | 20 ft | 15 kts | 105° |
| 2026-05-06 10:39 | 44.41450 | 8.83657 | 20 ft | 17 kts | 105° |
| 2026-05-06 10:39 | 44.41419 | 8.83822 | 20 ft | 18 kts | 105° |
| 2026-05-06 10:40 | 44.41384 | 8.84003 | 22 ft | 20 kts | 105° |
| 2026-05-06 10:40 | 44.41346 | 8.84200 | 20 ft | 22 kts | 105° |
| 2026-05-06 10:40 | 44.41306 | 8.84408 | 21 ft | 22 kts | 105° |
| 2026-05-06 10:40 | 44.41264 | 8.84619 | 20 ft | 23 kts | 105° |
| 2026-05-06 10:41 | 44.41222 | 8.84830 | 21 ft | 18 kts | 105° |
| 2026-05-06 10:41 | 44.41243 | 8.84916 | 20 ft | 8 kts | 356° |
| 2026-05-06 10:41 | 44.41294 | 8.84937 | 20 ft | 8 kts | 21° |
| 2026-05-06 10:41 | 44.41340 | 8.84983 | 20 ft | 8 kts | 68° |
| 2026-05-06 10:42 | 44.41334 | 8.85065 | 20 ft | 8 kts | 85° |
| 2026-05-06 10:42 | 44.41382 | 8.85093 | 20 ft | 8 kts | 13° |
| 2026-05-06 10:42 | 44.41398 | 8.85100 | 20 ft | 0 kts | 16° |
| 2026-05-06 10:49 | 44.41407 | 8.85108 | 20 ft | 0 kts | 15° |
| 2026-05-06 10:49 | 44.41407 | 8.85103 | 20 ft | 0 kts | 15° |
| 2026-05-06 10:49 | 44.41407 | 8.85108 | 20 ft | 0 kts | 15° |
| 2026-05-06 10:50 | 44.41398 | 8.85100 | 20 ft | 0 kts | 15° |
| 2026-05-06 10:50 | 44.41397 | 8.85099 | 20 ft | 0 kts | 15° |